Time;durP1;ratioP1;P1;durP2;ratioP2;P2;SDS_P1;SDS_P2;PMS_P1;PMS_P2;Temp;Humidity;BMP_temperature;BMP_pressure;BME280_temperature;BME280_humidity;BME280_pressure;Samples;Min_cycle;Max_cycle;Signal;HPM_P1;HPM_P2
2023/08/26 00:00:07;;;;;;;10.65;8.07;;;;;;;27.90;54.59;98006.44;5035133;28;20508;-68
2023/08/26 00:02:36;;;;;;;10.38;7.78;;;;;;;27.98;55.36;97989.84;5045339;28;20045;-69
2023/08/26 00:05:02;;;;;;;9.40;7.60;;;;;;;27.86;54.48;97984.78;5028500;28;20043;-69
2023/08/26 00:07:27;;;;;;;9.77;7.95;;;;;;;27.90;55.71;97982.41;5029807;28;20056;-69
2023/08/26 00:09:55;;;;;;;11.38;7.70;;;;;;;27.82;56.14;97965.03;5027089;28;20059;-71
2023/08/26 00:12:20;;;;;;;12.20;7.65;;;;;;;27.82;55.83;97954.38;5026591;28;20029;-68
2023/08/26 00:14:46;;;;;;;10.40;7.82;;;;;;;27.95;55.14;97929.75;5030591;28;20448;-69
2023/08/26 00:17:12;;;;;;;11.25;8.00;;;;;;;27.90;55.58;97903.06;5011961;28;20033;-69
2023/08/26 00:19:37;;;;;;;10.18;7.57;;;;;;;27.78;55.64;97882.00;5013722;28;20499;-69
2023/08/26 00:22:05;;;;;;;10.70;7.85;;;;;;;27.26;56.74;97863.75;5024032;28;20021;-70
2023/08/26 00:24:32;;;;;;;12.73;8.05;;;;;;;27.48;57.23;97909.59;5026781;28;20040;-70
2023/08/26 00:26:58;;;;;;;11.35;8.25;;;;;;;27.26;58.15;97907.25;5033772;28;20590;-68
2023/08/26 00:29:26;;;;;;;9.98;7.80;;;;;;;27.13;59.97;97911.25;5035157;28;20044;-69
2023/08/26 00:31:53;;;;;;;9.60;7.45;;;;;;;27.25;60.44;97884.28;5027971;28;20040;-68
2023/08/26 00:34:24;;;;;;;9.68;6.72;;;;;;;27.46;59.79;97884.28;5044300;28;20110;-69
2023/08/26 00:36:51;;;;;;;10.57;7.80;;;;;;;27.18;61.01;97907.78;5027831;28;20078;-69
2023/08/26 00:39:19;;;;;;;11.55;7.78;;;;;;;27.25;62.78;98001.69;5023288;28;20131;-69
2023/08/26 00:41:46;;;;;;;10.23;7.70;;;;;;;26.91;63.86;98036.91;5028981;28;20084;-67
2023/08/26 00:44:11;;;;;;;13.07;7.82;;;;;;;26.48;62.94;98132.22;5009197;28;20554;-68
2023/08/26 00:46:39;;;;;;;10.52;7.47;;;;;;;26.62;62.00;98176.03;5008569;28;20362;-68
2023/08/26 00:49:07;;;;;;;13.13;8.10;;;;;;;26.64;63.65;98229.09;5012533;28;20846;-68
2023/08/26 00:51:33;;;;;;;14.77;7.88;;;;;;;25.81;80.05;98307.56;5021458;28;20032;-72
2023/08/26 00:53:58;;;;;;;12.68;6.68;;;;;;;24.60;84.18;98216.19;5024065;28;20037;-68
2023/08/26 00:56:24;;;;;;;11.38;4.95;;;;;;;22.33;100.00;98124.91;5022794;28;20789;-68
2023/08/26 00:58:52;;;;;;;16.77;6.65;;;;;;;22.21;100.00;98120.38;5016673;28;20035;-69
2023/08/26 01:01:22;;;;;;;10.10;6.18;;;;;;;22.50;100.00;98146.19;5027552;28;20028;-67
2023/08/26 01:03:48;;;;;;;9.93;5.75;;;;;;;22.69;100.00;98110.56;5015304;28;20033;-65
2023/08/26 01:06:13;;;;;;;8.82;4.68;;;;;;;22.89;100.00;98070.38;5008670;28;20037;-66
2023/08/26 01:08:41;;;;;;;7.60;4.22;;;;;;;22.59;100.00;98012.31;5005652;28;20121;-68
2023/08/26 01:11:33;;;;;;;9.68;4.18;;;;;;;22.71;100.00;97991.88;5027772;28;20029;-69
2023/08/26 01:14:04;;;;;;;6.97;4.07;;;;;;;22.61;100.00;97978.44;5022396;28;20808;-69
2023/08/26 01:16:35;;;;;;;6.53;3.55;;;;;;;22.40;100.00;97987.88;5020883;28;20044;-67
2023/08/26 01:19:02;;;;;;;6.93;4.07;;;;;;;22.30;100.00;98008.88;5003248;28;20571;-70
2023/08/26 01:21:35;;;;;;;7.65;3.63;;;;;;;22.22;100.00;98020.59;5005544;28;20595;-70
2023/08/26 01:24:00;;;;;;;7.55;3.70;;;;;;;22.26;100.00;98009.31;5003557;28;20046;-69
2023/08/26 01:26:28;;;;;;;8.38;3.33;;;;;;;22.31;100.00;98018.44;5019789;28;20045;-70
2023/08/26 01:28:56;;;;;;;6.85;3.30;;;;;;;22.22;100.00;98015.31;5001593;28;20568;-65
2023/08/26 01:31:24;;;;;;;6.70;3.50;;;;;;;22.36;100.00;98016.69;5035042;28;20039;-70
2023/08/26 01:34:27;;;;;;;7.57;3.35;;;;;;;22.24;100.00;98014.03;5010204;28;20033;-69
2023/08/26 01:36:55;;;;;;;6.22;3.10;;;;;;;22.20;100.00;98014.75;5014247;28;20035;-71
2023/08/26 01:39:23;;;;;;;6.55;3.20;;;;;;;22.27;100.00;98021.53;5012599;28;20028;-69
2023/08/26 01:41:52;;;;;;;7.18;3.90;;;;;;;22.40;100.00;98022.31;5006308;28;20112;-68
2023/08/26 01:44:18;;;;;;;6.43;3.58;;;;;;;22.45;100.00;98036.47;5003050;28;20021;-69
2023/08/26 01:46:44;;;;;;;7.15;3.42;;;;;;;22.29;100.00;97997.47;5019135;28;20369;-71
2023/08/26 01:49:13;;;;;;;6.78;4.03;;;;;;;22.58;100.00;98031.91;5003268;28;20137;-68
2023/08/26 01:51:39;;;;;;;6.03;3.30;;;;;;;22.60;100.00;98024.53;5014824;28;20029;-69
2023/08/26 01:54:08;;;;;;;6.65;3.75;;;;;;;22.62;100.00;98033.84;5020050;28;20032;-67
2023/08/26 01:56:34;;;;;;;6.40;4.05;;;;;;;22.68;100.00;98041.91;5016792;28;20087;-69
2023/08/26 01:58:59;;;;;;;6.85;4.05;;;;;;;22.60;100.00;98019.25;5020617;28;20076;-70
2023/08/26 02:01:25;;;;;;;6.40;3.70;;;;;;;22.65;100.00;98040.50;5016629;28;20055;-67
2023/08/26 02:03:50;;;;;;;7.53;4.57;;;;;;;22.78;100.00;98036.75;5026977;28;20381;-68
2023/08/26 02:06:21;;;;;;;8.48;5.70;;;;;;;22.80;100.00;98045.31;5025655;28;20604;-66
2023/08/26 02:08:48;;;;;;;7.90;5.68;;;;;;;22.87;100.00;98045.94;5048849;28;20025;-67
2023/08/26 02:11:14;;;;;;;7.40;4.80;;;;;;;22.86;100.00;98036.41;5033332;28;20899;-67
2023/08/26 02:13:39;;;;;;;8.98;5.05;;;;;;;22.86;100.00;98030.31;5017110;28;20028;-69
2023/08/26 02:16:07;;;;;;;7.75;5.00;;;;;;;22.82;100.00;98044.03;5018434;28;20510;-63
2023/08/26 02:18:32;;;;;;;8.18;5.20;;;;;;;22.79;100.00;98033.88;5022139;28;20033;-67
2023/08/26 02:20:58;;;;;;;6.85;4.90;;;;;;;22.94;100.00;98024.59;5018189;28;20082;-64
2023/08/26 02:23:24;;;;;;;7.38;5.25;;;;;;;23.04;100.00;98024.81;5020578;28;20664;-66
2023/08/26 02:25:49;;;;;;;7.65;5.25;;;;;;;23.00;100.00;98015.72;5017962;28;20040;-67
2023/08/26 02:28:19;;;;;;;8.95;5.10;;;;;;;22.90;100.00;98018.16;5018349;28;20029;-65
2023/08/26 02:30:45;;;;;;;7.32;4.95;;;;;;;22.81;100.00;98015.91;5019861;28;20056;-65
2023/08/26 02:33:15;;;;;;;7.55;5.10;;;;;;;22.89;100.00;98013.91;5005771;28;20081;-68
2023/08/26 02:35:45;;;;;;;7.60;5.05;;;;;;;22.84;100.00;98009.34;5015625;28;20562;-66
2023/08/26 02:38:11;;;;;;;7.30;4.72;;;;;;;23.01;100.00;98022.59;4998387;28;20918;-67
2023/08/26 02:40:36;;;;;;;8.10;5.10;;;;;;;23.07;100.00;98021.66;5023867;28;20044;-68
2023/08/26 02:43:01;;;;;;;8.23;5.03;;;;;;;23.14;100.00;98024.16;5032800;28;20036;-64
2023/08/26 02:45:29;;;;;;;8.18;5.20;;;;;;;23.10;100.00;98025.69;5015485;28;20544;-68
2023/08/26 02:47:57;;;;;;;7.95;5.25;;;;;;;22.99;100.00;98033.44;5030482;28;20499;-64
2023/08/26 02:50:24;;;;;;;8.40;5.22;;;;;;;23.11;100.00;98029.94;5021759;28;20148;-66
2023/08/26 02:52:52;;;;;;;8.05;5.30;;;;;;;22.93;100.00;98007.09;5018889;28;20028;-69
2023/08/26 02:55:17;;;;;;;7.32;5.43;;;;;;;23.18;100.00;98020.81;5017026;28;20023;-65
2023/08/26 02:57:45;;;;;;;7.95;5.20;;;;;;;23.18;100.00;98022.63;5015968;28;20033;-66
2023/08/26 03:00:11;;;;;;;8.95;5.13;;;;;;;23.15;100.00;98023.94;5020377;28;20036;-66
2023/08/26 03:02:39;;;;;;;7.80;5.00;;;;;;;23.18;100.00;98015.50;5018197;28;20021;-70
2023/08/26 03:05:04;;;;;;;9.38;5.30;;;;;;;23.26;100.00;98024.09;5029829;28;20040;-66
2023/08/26 03:07:30;;;;;;;7.47;4.88;;;;;;;23.36;100.00;98026.91;5030835;28;20490;-67
2023/08/26 03:09:57;;;;;;;8.02;5.05;;;;;;;23.37;100.00;98031.16;5017210;28;20443;-70
2023/08/26 03:12:25;;;;;;;9.40;5.32;;;;;;;23.36;100.00;98033.00;5008971;28;20068;-69
2023/08/26 03:14:53;;;;;;;7.93;5.25;;;;;;;23.37;100.00;98039.13;5018589;28;20694;-69
2023/08/26 03:17:19;;;;;;;7.65;5.13;;;;;;;23.45;100.00;98046.66;5039064;28;20029;-68
2023/08/26 03:19:47;;;;;;;8.07;5.43;;;;;;;23.47;100.00;98055.19;5004517;28;20071;-68
2023/08/26 03:22:12;;;;;;;8.80;5.80;;;;;;;23.35;100.00;98047.31;5022373;28;20041;-63
2023/08/26 03:24:40;;;;;;;7.85;5.65;;;;;;;23.27;100.00;98052.22;5021110;28;20057;-65
2023/08/26 03:27:05;;;;;;;7.50;5.18;;;;;;;22.96;100.00;98030.47;5017003;28;20032;-67
2023/08/26 03:29:31;;;;;;;9.10;5.22;;;;;;;23.19;100.00;98069.34;5020328;28;20025;-69
2023/08/26 03:31:59;;;;;;;8.73;5.53;;;;;;;22.99;100.00;98045.91;5025316;28;20044;-66
2023/08/26 03:34:24;;;;;;;8.43;5.70;;;;;;;22.97;100.00;98032.09;5030601;28;20037;-63
2023/08/26 03:36:49;;;;;;;8.27;5.45;;;;;;;23.14;100.00;98054.13;5022190;28;20029;-69
2023/08/26 03:39:15;;;;;;;8.35;5.38;;;;;;;23.26;100.00;98062.03;5007395;28;20495;-66
2023/08/26 03:41:43;;;;;;;7.80;5.47;;;;;;;23.34;100.00;98050.22;5006623;28;20033;-66
2023/08/26 03:44:13;;;;;;;8.82;5.70;;;;;;;23.30;100.00;98038.47;5036418;28;20037;-63
2023/08/26 03:46:39;;;;;;;8.95;5.57;;;;;;;23.47;100.00;98057.03;5031891;28;20120;-69
2023/08/26 03:49:04;;;;;;;8.45;5.80;;;;;;;23.35;100.00;98062.44;5014956;28;20031;-64
2023/08/26 03:51:30;;;;;;;8.35;5.82;;;;;;;23.40;100.00;98065.97;5021497;28;20029;-67
2023/08/26 03:54:00;;;;;;;8.35;5.40;;;;;;;23.42;100.00;98065.75;5025622;28;20459;-66
2023/08/26 03:56:25;;;;;;;8.13;5.78;;;;;;;23.40;100.00;98073.94;5007970;28;20017;-65
2023/08/26 03:58:56;;;;;;;7.53;5.43;;;;;;;23.40;100.00;98076.59;5026376;28;20032;-67
2023/08/26 04:01:21;;;;;;;8.55;5.32;;;;;;;23.40;100.00;98084.53;5009865;28;20030;-64
2023/08/26 04:03:50;;;;;;;10.32;6.00;;;;;;;23.52;100.00;98078.34;5028528;28;20122;-64
2023/08/26 04:06:17;;;;;;;8.20;5.60;;;;;;;23.34;100.00;98072.22;5022521;28;20862;-66
2023/08/26 04:08:43;;;;;;;7.40;5.50;;;;;;;23.28;100.00;98083.81;5002437;28;20037;-67
2023/08/26 04:11:09;;;;;;;8.45;5.60;;;;;;;23.36;100.00;98075.44;5011356;28;20047;-68
2023/08/26 04:13:37;;;;;;;7.53;5.07;;;;;;;23.45;100.00;98081.16;5012640;28;20140;-66
2023/08/26 04:16:03;;;;;;;9.00;5.88;;;;;;;23.45;100.00;98075.84;5029824;28;20406;-69
2023/08/26 04:18:32;;;;;;;7.90;5.55;;;;;;;23.57;99.88;98073.13;5017859;28;20033;-68
2023/08/26 04:20:57;;;;;;;8.18;5.60;;;;;;;23.57;99.77;98073.94;5023982;28;20041;-68
2023/08/26 04:23:23;;;;;;;8.77;5.53;;;;;;;23.71;100.00;98076.25;5002323;28;20041;-68
2023/08/26 04:25:51;;;;;;;10.43;5.70;;;;;;;23.58;100.00;98048.19;5019496;28;20583;-65
2023/08/26 04:28:16;;;;;;;9.32;5.75;;;;;;;23.64;100.00;98070.28;5018932;28;20052;-65
2023/08/26 04:30:45;;;;;;;7.55;5.65;;;;;;;23.39;100.00;98048.44;5017556;28;20819;-67
2023/08/26 04:33:10;;;;;;;8.57;6.03;;;;;;;23.63;100.00;98082.75;5014694;28;20037;-67
2023/08/26 04:35:38;;;;;;;7.53;5.28;;;;;;;23.65;100.00;98080.66;5025210;28;20025;-65
2023/08/26 04:38:06;;;;;;;7.90;5.85;;;;;;;23.65;99.97;98075.38;5024073;28;20056;-67
2023/08/26 04:40:31;;;;;;;8.70;5.97;;;;;;;23.73;100.00;98072.31;5035588;28;20067;-61
2023/08/26 04:43:02;;;;;;;8.60;6.10;;;;;;;23.68;100.00;98082.06;5032037;28;20029;-67
2023/08/26 04:45:27;;;;;;;7.68;5.50;;;;;;;23.53;100.00;98058.72;5027849;28;20064;-65
2023/08/26 04:47:53;;;;;;;10.55;6.25;;;;;;;23.73;100.00;98074.97;5035510;28;20033;-67
2023/08/26 04:50:18;;;;;;;8.15;5.50;;;;;;;23.73;98.81;98090.88;5029688;28;20778;-66
2023/08/26 04:52:44;;;;;;;8.15;5.57;;;;;;;23.67;99.07;98091.84;5027920;28;20352;-67
2023/08/26 04:55:10;;;;;;;7.30;5.65;;;;;;;23.65;97.17;98093.94;5028064;28;20040;-66
2023/08/26 04:57:38;;;;;;;8.27;5.93;;;;;;;23.83;97.70;98098.22;5000355;28;20037;-65
2023/08/26 05:00:10;;;;;;;9.38;6.10;;;;;;;23.87;97.45;98104.66;5035718;28;20366;-67
2023/08/26 05:02:38;;;;;;;8.88;6.35;;;;;;;23.78;96.49;98114.03;5025455;28;20732;-67
2023/08/26 05:05:06;;;;;;;8.52;5.97;;;;;;;23.83;97.02;98111.50;5012131;28;20111;-66
2023/08/26 05:07:32;;;;;;;7.95;5.90;;;;;;;23.83;96.94;98108.84;5031670;28;20112;-67
2023/08/26 05:09:58;;;;;;;8.60;6.28;;;;;;;23.88;97.04;98114.22;5028328;28;20527;-64
2023/08/26 05:12:26;;;;;;;10.15;6.00;;;;;;;23.87;97.29;98125.09;5024398;28;20539;-64
2023/08/26 05:14:51;;;;;;;9.60;6.22;;;;;;;24.01;98.02;98117.59;5023237;28;20114;-67
2023/08/26 05:17:17;;;;;;;7.90;5.88;;;;;;;23.94;97.02;98104.47;4998622;28;21025;-66
2023/08/26 05:19:42;;;;;;;8.68;6.78;;;;;;;23.89;95.07;98102.53;5010997;28;20032;-65
2023/08/26 05:22:07;;;;;;;7.72;5.93;;;;;;;23.95;94.93;98085.66;5042070;28;20036;-65
2023/08/26 05:24:35;;;;;;;8.30;5.60;;;;;;;24.08;95.00;98081.06;5026581;28;20056;-66
2023/08/26 05:27:03;;;;;;;9.85;5.97;;;;;;;24.18;94.78;98089.13;5037305;28;20036;-65
2023/08/26 05:29:28;;;;;;;9.52;6.78;;;;;;;24.29;94.97;98098.84;5015606;28;20109;-66
2023/08/26 05:31:56;;;;;;;9.90;6.43;;;;;;;24.33;96.07;98096.50;5029576;28;20083;-66
2023/08/26 05:34:22;;;;;;;9.45;6.53;;;;;;;24.27;97.22;98090.31;5032305;28;20043;-66
2023/08/26 05:36:47;;;;;;;10.82;6.55;;;;;;;24.00;97.38;98103.50;5034335;28;20036;-66
2023/08/26 05:39:15;;;;;;;7.47;5.97;;;;;;;23.99;97.16;98110.66;5032755;28;20040;-66
2023/08/26 05:41:45;;;;;;;8.60;6.30;;;;;;;24.01;97.12;98115.75;5033434;28;20140;-66
2023/08/26 05:44:13;;;;;;;9.93;6.18;;;;;;;23.90;97.52;98095.41;5028630;28;20025;-65
2023/08/26 05:46:38;;;;;;;7.53;5.78;;;;;;;24.00;96.86;98122.09;5029067;28;20035;-64
2023/08/26 05:49:03;;;;;;;9.85;6.57;;;;;;;23.99;96.53;98110.66;5022343;28;20041;-66
2023/08/26 05:51:31;;;;;;;8.98;6.80;;;;;;;24.20;96.16;98108.28;5034820;28;20059;-66
2023/08/26 05:53:56;;;;;;;9.40;6.45;;;;;;;24.13;96.19;98111.13;5037542;28;20098;-66
2023/08/26 05:56:26;;;;;;;8.50;6.10;;;;;;;24.11;95.36;98110.59;5007591;28;20028;-65
2023/08/26 05:58:52;;;;;;;9.10;5.95;;;;;;;24.18;95.74;98118.34;5011965;28;20021;-66
2023/08/26 06:01:17;;;;;;;9.30;6.60;;;;;;;24.17;96.04;98083.03;5029239;28;20810;-67
2023/08/26 06:03:43;;;;;;;8.88;6.85;;;;;;;24.18;96.12;98092.59;5034405;28;20044;-66
2023/08/26 06:06:08;;;;;;;9.95;6.38;;;;;;;24.31;96.69;98114.53;5034836;28;20513;-66
2023/08/26 06:08:36;;;;;;;8.68;6.63;;;;;;;24.25;95.64;98112.88;5032717;28;20043;-66
2023/08/26 06:11:01;;;;;;;11.10;6.65;;;;;;;24.20;96.35;98118.91;5035513;28;20021;-67
2023/08/26 06:13:29;;;;;;;8.90;6.07;;;;;;;24.34;96.13;98103.44;5030437;28;20040;-66
2023/08/26 06:15:57;;;;;;;8.82;6.35;;;;;;;24.38;95.22;98101.88;5052593;28;20558;-66
2023/08/26 06:18:23;;;;;;;9.48;6.28;;;;;;;24.30;95.75;98108.44;5032814;28;20753;-66
2023/08/26 06:20:50;;;;;;;8.68;6.55;;;;;;;24.48;96.11;98101.22;5032557;28;20640;-65
2023/08/26 06:23:18;;;;;;;9.43;6.65;;;;;;;24.28;95.69;98102.56;5016915;28;20033;-65
2023/08/26 06:25:51;;;;;;;9.57;6.63;;;;;;;24.46;96.11;98103.28;5015363;28;20048;-66
2023/08/26 06:28:17;;;;;;;9.02;6.50;;;;;;;24.26;95.98;98077.28;5029445;28;20067;-65
2023/08/26 06:30:44;;;;;;;8.75;6.35;;;;;;;24.36;94.61;98098.66;5035781;28;20059;-65
2023/08/26 06:33:10;;;;;;;8.13;6.07;;;;;;;24.33;94.66;98107.94;5012443;28;20040;-65
2023/08/26 06:35:38;;;;;;;8.68;6.20;;;;;;;24.41;94.51;98117.34;5029575;28;20037;-64
2023/08/26 06:38:03;;;;;;;9.80;6.65;;;;;;;24.18;95.15;98097.91;5028302;28;20550;-65
2023/08/26 06:40:31;;;;;;;8.77;6.50;;;;;;;24.24;95.96;98109.44;5017060;28;20029;-65
2023/08/26 06:42:57;;;;;;;10.35;6.80;;;;;;;24.26;95.56;98098.53;5038411;28;20033;-66
2023/08/26 06:45:23;;;;;;;9.88;6.68;;;;;;;24.30;95.12;98100.47;5031413;28;20733;-64
2023/08/26 06:47:49;;;;;;;9.02;6.75;;;;;;;24.41;94.21;98092.63;5017448;28;20031;-66
2023/08/26 06:50:16;;;;;;;10.27;6.47;;;;;;;24.55;93.34;98094.69;5021927;28;20037;-66
2023/08/26 06:52:42;;;;;;;10.32;6.10;;;;;;;24.45;93.10;98107.03;5035735;28;20033;-67
2023/08/26 06:55:10;;;;;;;8.70;6.75;;;;;;;24.43;94.05;98111.78;5034284;28;20376;-68
2023/08/26 06:57:38;;;;;;;10.50;6.88;;;;;;;24.59;93.44;98113.59;5018900;28;20036;-68
2023/08/26 07:00:08;;;;;;;10.07;6.87;;;;;;;24.67;93.47;98118.47;5031991;28;20630;-68
2023/08/26 07:02:36;;;;;;;8.70;7.05;;;;;;;24.61;92.15;98113.38;5014836;28;20194;-67
2023/08/26 07:05:04;;;;;;;10.30;6.65;;;;;;;24.58;92.21;98114.66;5038390;28;20532;-68
2023/08/26 07:07:30;;;;;;;8.35;6.65;;;;;;;24.71;91.62;98113.47;5012659;28;20024;-67
2023/08/26 07:09:57;;;;;;;9.25;6.10;;;;;;;24.85;91.07;98116.56;5019167;28;20063;-68
2023/08/26 07:12:25;;;;;;;8.00;6.05;;;;;;;24.80;91.08;98106.66;5029419;28;20036;-67
2023/08/26 07:14:51;;;;;;;10.38;6.80;;;;;;;24.89;90.81;98105.16;5034460;28;20032;-67
2023/08/26 07:17:18;;;;;;;9.85;6.82;;;;;;;24.93;90.80;98102.78;5032409;28;20153;-65
2023/08/26 07:19:44;;;;;;;9.18;6.53;;;;;;;24.90;90.66;98106.78;5019000;28;20113;-67
2023/08/26 07:22:11;;;;;;;8.18;6.80;;;;;;;25.14;89.51;98096.63;5036978;28;20490;-66
2023/08/26 07:24:39;;;;;;;9.55;6.72;;;;;;;24.81;90.76;98071.06;5035613;28;20045;-67
2023/08/26 07:27:07;;;;;;;7.95;6.65;;;;;;;24.92;90.95;98096.69;5016463;28;20194;-67
2023/08/26 07:29:33;;;;;;;10.50;6.80;;;;;;;24.73;89.42;98074.13;5032223;28;20037;-67
2023/08/26 07:31:59;;;;;;;10.07;7.35;;;;;;;25.08;90.10;98100.31;5019252;28;20067;-67
2023/08/26 07:34:27;;;;;;;11.60;6.95;;;;;;;25.25;89.83;98102.09;5011311;28;21272;-69
2023/08/26 07:36:52;;;;;;;11.50;8.85;;;;;;;24.94;89.97;98069.84;5017201;28;20025;-67
2023/08/26 07:39:20;;;;;;;9.73;7.35;;;;;;;25.01;90.61;98094.38;5013598;28;20476;-67
2023/08/26 07:41:45;;;;;;;9.50;7.32;;;;;;;24.96;90.75;98094.34;5039484;28;20067;-68
2023/08/26 07:44:13;;;;;;;10.57;7.82;;;;;;;24.73;90.08;98074.13;5030017;28;20440;-67
2023/08/26 07:46:43;;;;;;;9.02;6.82;;;;;;;24.94;90.61;98088.47;5036198;28;20365;-65
2023/08/26 07:49:08;;;;;;;13.95;9.65;;;;;;;25.05;89.44;98105.31;5030439;28;20129;-65
2023/08/26 07:51:33;;;;;;;9.55;7.00;;;;;;;24.97;89.44;98109.25;5017716;28;20120;-68
2023/08/26 07:54:01;;;;;;;10.45;7.97;;;;;;;24.94;89.70;98115.84;5016564;28;20396;-68
2023/08/26 07:56:27;;;;;;;13.93;10.07;;;;;;;25.14;89.84;98112.59;5036747;28;20156;-67
2023/08/26 07:58:52;;;;;;;9.88;7.38;;;;;;;25.17;88.50;98124.56;5029211;28;20041;-67
2023/08/26 08:01:20;;;;;;;14.10;11.10;;;;;;;25.36;89.07;98130.38;5017503;28;20843;-68
2023/08/26 08:03:47;;;;;;;11.32;8.13;;;;;;;25.16;89.03;98138.94;5028549;28;20043;-68
2023/08/26 08:06:18;;;;;;;10.93;7.68;;;;;;;25.29;88.89;98129.78;5034272;28;20029;-68
2023/08/26 08:08:43;;;;;;;11.00;6.30;;;;;;;25.54;88.17;98128.38;5021028;28;20036;-67
2023/08/26 08:11:09;;;;;;;10.02;6.93;;;;;;;25.34;87.74;98121.84;5021482;28;20028;-67
2023/08/26 08:13:36;;;;;;;10.90;6.78;;;;;;;25.45;88.48;98123.53;5050606;28;20040;-69
2023/08/26 08:16:02;;;;;;;8.43;6.50;;;;;;;25.49;87.89;98131.81;5038088;28;20388;-68
2023/08/26 08:18:30;;;;;;;8.40;6.90;;;;;;;25.30;89.46;98123.41;5034536;28;20048;-69
2023/08/26 08:20:56;;;;;;;10.38;6.93;;;;;;;25.31;87.95;98095.75;5027277;28;20833;-67
2023/08/26 08:23:21;;;;;;;10.77;6.90;;;;;;;25.45;88.14;98112.91;5029177;28;20025;-67
2023/08/26 08:25:46;;;;;;;8.20;6.43;;;;;;;25.77;86.67;98105.94;5037395;28;20061;-68
2023/08/26 08:28:14;;;;;;;8.95;7.03;;;;;;;25.75;86.80;98100.88;5033798;28;20098;-67
2023/08/26 08:30:40;;;;;;;10.05;6.93;;;;;;;25.86;85.89;98110.53;5016693;28;20574;-69
2023/08/26 08:33:05;;;;;;;9.45;6.82;;;;;;;25.95;86.10;98110.88;5037955;28;20032;-66
2023/08/26 08:35:33;;;;;;;9.90;7.07;;;;;;;25.95;86.53;98113.53;5031494;28;20041;-67
2023/08/26 08:37:59;;;;;;;9.95;6.85;;;;;;;25.86;85.56;98107.84;5047473;28;20024;-66
2023/08/26 08:40:26;;;;;;;9.85;7.07;;;;;;;26.42;82.55;98086.09;5035875;28;20373;-65
2023/08/26 08:42:57;;;;;;;9.07;6.50;;;;;;;26.53;84.31;98112.78;5034101;28;20045;-67
2023/08/26 08:45:23;;;;;;;9.70;6.75;;;;;;;26.22;84.54;98097.44;5013850;28;20636;-67
2023/08/26 08:47:53;;;;;;;9.20;6.88;;;;;;;26.28;85.69;98098.28;5031565;28;20228;-66
2023/08/26 08:50:20;;;;;;;9.20;6.95;;;;;;;26.24;85.84;98087.34;5034698;28;20048;-67
2023/08/26 08:52:48;;;;;;;10.50;7.32;;;;;;;26.17;86.52;98084.09;5032936;28;20029;-66
2023/08/26 08:55:15;;;;;;;8.70;6.80;;;;;;;26.23;85.82;98090.25;5036476;28;20044;-68
2023/08/26 08:57:42;;;;;;;9.88;6.90;;;;;;;26.31;84.30;98092.44;5036910;28;20039;-66
2023/08/26 09:00:10;;;;;;;9.05;6.90;;;;;;;26.40;84.56;98079.41;5037565;28;20040;-66
2023/08/26 09:02:40;;;;;;;9.52;7.22;;;;;;;26.57;83.04;98082.66;5036554;28;20116;-67
2023/08/26 09:05:07;;;;;;;10.90;7.00;;;;;;;26.44;82.42;98083.94;5036154;28;20178;-67
2023/08/26 09:07:33;;;;;;;8.35;6.78;;;;;;;26.53;82.65;98083.47;5033076;28;20485;-66
2023/08/26 09:10:05;;;;;;;10.02;6.75;;;;;;;26.79;82.30;98090.50;5041647;28;20082;-65
2023/08/26 09:12:31;;;;;;;8.93;6.68;;;;;;;26.63;80.41;98092.34;5009948;28;20127;-67
2023/08/26 09:14:56;;;;;;;10.27;6.93;;;;;;;26.79;80.64;98095.81;5016783;28;20025;-67
2023/08/26 09:17:26;;;;;;;8.00;6.40;;;;;;;26.74;80.14;98101.16;5035807;28;20032;-67
2023/08/26 09:19:56;;;;;;;8.60;6.93;;;;;;;26.56;80.74;98093.59;5032311;28;20033;-68
2023/08/26 09:22:29;;;;;;;9.48;6.78;;;;;;;26.81;79.73;98109.69;5036772;28;20029;-67
2023/08/26 09:24:59;;;;;;;8.38;7.18;;;;;;;26.92;79.95;98104.41;5026833;28;20068;-65
2023/08/26 09:27:27;;;;;;;11.55;7.57;;;;;;;26.96;79.86;98097.47;5033093;28;20025;-65
2023/08/26 09:29:54;;;;;;;8.93;7.18;;;;;;;26.84;79.06;98111.06;5010397;28;20032;-67
2023/08/26 09:32:38;;;;;;;10.80;7.47;;;;;;;26.87;78.67;98102.53;5037114;28;20021;-68
2023/08/26 09:35:12;;;;;;;11.05;7.50;;;;;;;26.99;79.58;98097.72;5030056;28;20128;-67
2023/08/26 09:37:41;;;;;;;10.20;7.13;;;;;;;26.97;78.80;98091.88;5050126;28;20124;-64
2023/08/26 09:40:07;;;;;;;8.40;6.88;;;;;;;27.13;79.71;98090.03;5031631;28;20032;-66
2023/08/26 09:42:34;;;;;;;8.70;6.68;;;;;;;27.39;79.18;98096.19;5052416;28;20036;-64
2023/08/26 09:45:02;;;;;;;10.23;6.72;;;;;;;27.55;78.14;98072.19;5053002;28;20063;-64
2023/08/26 09:47:30;;;;;;;8.63;6.85;;;;;;;27.31;78.69;98086.06;5034819;28;20022;-67
2023/08/26 09:49:56;;;;;;;11.27;7.10;;;;;;;27.37;79.07;98087.66;5033932;28;20555;-67
2023/08/26 09:52:21;;;;;;;10.38;7.07;;;;;;;27.57;78.50;98081.53;5030830;28;20102;-67
2023/08/26 09:54:51;;;;;;;9.65;6.88;;;;;;;27.58;77.26;98083.13;5031997;28;20077;-65
2023/08/26 09:57:17;;;;;;;10.18;7.72;;;;;;;27.55;77.41;98072.97;5039750;28;20516;-65
2023/08/26 09:59:44;;;;;;;10.55;7.10;;;;;;;27.72;77.92;98069.22;5036171;28;20033;-66
2023/08/26 10:02:23;;;;;;;10.50;6.60;;;;;;;27.65;77.34;98074.03;5026068;28;20180;-66
2023/08/26 10:04:58;;;;;;;11.13;7.40;;;;;;;27.37;79.04;98071.66;5036765;28;20043;-66
2023/08/26 10:07:26;;;;;;;10.32;7.20;;;;;;;27.39;76.83;98066.03;5011938;28;20531;-66
2023/08/26 10:10:02;;;;;;;11.20;7.28;;;;;;;27.60;77.39;98064.19;5017930;28;20033;-65
2023/08/26 10:12:43;;;;;;;8.95;6.90;;;;;;;27.52;76.91;98054.03;5032829;28;20025;-66
2023/08/26 10:15:12;;;;;;;9.40;7.45;;;;;;;27.58;76.84;98047.59;5029536;28;20035;-67
2023/08/26 10:17:40;;;;;;;8.95;7.55;;;;;;;27.63;76.92;98028.91;5058552;28;20341;-67
2023/08/26 10:20:07;;;;;;;9.40;7.30;;;;;;;27.88;76.88;98027.25;5013840;28;20167;-67
2023/08/26 10:22:33;;;;;;;11.90;7.72;;;;;;;27.97;77.00;97999.72;5013519;28;20082;-66
2023/08/26 10:24:59;;;;;;;9.93;8.00;;;;;;;28.17;76.82;98012.22;5019326;28;20806;-66
2023/08/26 10:27:24;;;;;;;9.82;7.32;;;;;;;28.09;76.01;98014.66;5031993;28;20044;-67
2023/08/26 10:29:50;;;;;;;9.50;7.53;;;;;;;28.01;77.00;98021.38;5033161;28;20051;-68
2023/08/26 10:32:23;;;;;;;10.35;7.70;;;;;;;28.02;76.58;98012.28;5028744;28;20033;-67
2023/08/26 10:34:58;;;;;;;8.95;7.68;;;;;;;28.26;76.85;98020.47;5034928;28;20778;-65
2023/08/26 10:37:28;;;;;;;10.18;7.57;;;;;;;28.38;76.86;98015.59;5014389;28;20036;-65
2023/08/26 10:39:54;;;;;;;9.95;7.35;;;;;;;28.28;75.17;97993.47;5010314;28;20928;-65
2023/08/26 10:42:21;;;;;;;9.57;7.85;;;;;;;28.39;77.30;98005.69;5053290;28;20037;-65
2023/08/26 10:44:50;;;;;;;10.57;7.90;;;;;;;28.10;78.81;98008.25;5037647;28;20108;-64
2023/08/26 10:47:40;;;;;;;11.30;7.25;;;;;;;28.21;78.50;98000.97;5035071;28;20760;-66
2023/08/26 10:50:20;;;;;;;11.15;8.23;;;;;;;28.31;78.94;97998.25;5030549;28;20033;-65
2023/08/26 10:52:49;;;;;;;11.52;7.82;;;;;;;28.21;77.95;98001.78;5027432;28;20044;-65
2023/08/26 10:55:22;;;;;;;9.90;7.95;;;;;;;28.10;78.63;97998.34;5027949;28;20037;-64
2023/08/26 10:58:09;;;;;;;9.23;7.45;;;;;;;27.94;78.31;97994.94;5030340;28;20025;-65
2023/08/26 11:00:45;;;;;;;12.90;7.93;;;;;;;28.18;78.92;97991.63;5035179;28;20029;-65
2023/08/26 11:03:14;;;;;;;10.88;7.40;;;;;;;28.14;77.77;97986.03;5015916;28;20036;-66
2023/08/26 11:05:48;;;;;;;9.90;7.75;;;;;;;27.95;78.58;97975.16;5015317;28;20578;-66
2023/08/26 11:08:16;;;;;;;9.95;8.18;;;;;;;27.97;78.69;97975.69;5036349;28;20025;-66
2023/08/26 11:10:46;;;;;;;10.02;8.02;;;;;;;28.13;79.87;97968.41;5012878;28;20049;-65
2023/08/26 11:13:14;;;;;;;9.30;7.68;;;;;;;28.27;79.72;97957.91;5033404;28;20040;-65
2023/08/26 11:15:43;;;;;;;12.00;8.63;;;;;;;28.33;79.23;97959.47;5047675;28;20048;-66
2023/08/26 11:18:10;;;;;;;9.80;7.88;;;;;;;28.29;78.38;97947.72;5014782;28;20037;-66
2023/08/26 11:20:36;;;;;;;10.65;8.23;;;;;;;28.66;78.44;97948.31;5013552;28;20195;-66
2023/08/26 11:23:03;;;;;;;10.52;8.18;;;;;;;28.60;75.93;97928.84;5032615;28;20033;-66
2023/08/26 11:25:29;;;;;;;9.43;7.47;;;;;;;28.78;76.50;97943.41;5032925;28;21311;-67
2023/08/26 11:28:03;;;;;;;11.80;8.07;;;;;;;28.46;77.24;97935.84;5018735;28;20033;-65
2023/08/26 11:30:29;;;;;;;10.15;8.00;;;;;;;28.52;77.59;97906.16;5022420;28;20060;-66